createdAt,value
2018-12-25T00:00:26.985Z,86.04
2018-12-25T00:01:26.152Z,86.55
2018-12-25T00:02:26.986Z,86.66
2018-12-25T00:03:26.984Z,87.07
2018-12-25T00:04:26.077Z,86.76
2018-12-25T00:05:26.382Z,86.76
2018-12-25T00:06:26.983Z,87.38
2018-12-25T00:07:26.088Z,86.25
2018-12-25T00:08:26.034Z,86.66
2018-12-25T00:09:26.024Z,86.87
2018-12-25T00:10:26.019Z,86.97
2018-12-25T00:11:26.003Z,86.66
2018-12-25T00:12:26.403Z,86.66
2018-12-25T00:13:26.179Z,86.76
2018-12-25T00:14:26.481Z,87.18
2018-12-25T00:15:25.963Z,86.66
2018-12-25T00:16:26.056Z,86.97
2018-12-25T00:17:26.009Z,86.35
2018-12-25T00:18:25.985Z,86.15
2018-12-25T00:19:26.456Z,85.94
2018-12-25T00:20:25.982Z,86.25
2018-12-25T00:21:25.897Z,85.83
2018-12-25T00:22:25.889Z,85.73
2018-12-25T00:23:25.882Z,86.15
2018-12-25T00:24:25.869Z,86.45
2018-12-25T00:25:25.895Z,85.83
2018-12-25T00:26:26.341Z,86.45
2018-12-25T00:27:25.835Z,85.94
2018-12-25T00:28:25.832Z,85.38
2018-12-25T00:29:25.815Z,85.83
2018-12-25T00:30:25.827Z,85.79
2018-12-25T00:31:25.969Z,85.79
2018-12-25T00:32:25.785Z,85.83
2018-12-25T00:33:26.149Z,85.63
2018-12-25T00:34:25.884Z,85.83
2018-12-25T00:35:25.751Z,86.15
2018-12-25T00:36:25.804Z,85.79
2018-12-25T00:37:25.777Z,85.79
2018-12-25T00:38:25.731Z,86.04
2018-12-25T00:39:25.710Z,86.45
2018-12-25T00:40:26.157Z,85.48
2018-12-25T00:41:25.692Z,86.15
2018-12-25T00:42:25.678Z,86.15
2018-12-25T00:43:25.717Z,85.94
2018-12-25T00:44:25.656Z,86.00
2018-12-25T00:45:25.647Z,86.21
2018-12-25T00:46:25.635Z,85.38
2018-12-25T00:47:25.970Z,86.04
2018-12-25T00:48:25.615Z,86.41
2018-12-25T00:49:25.819Z,86.35
2018-12-25T00:50:25.594Z,85.79
2018-12-25T00:51:25.588Z,85.63
2018-12-25T00:52:25.574Z,85.27
2018-12-25T00:53:25.564Z,85.79
2018-12-25T00:54:25.992Z,86.04
2018-12-25T00:55:25.588Z,86.04
2018-12-25T00:56:25.532Z,86.15
2018-12-25T00:57:25.520Z,85.83
2018-12-25T00:58:25.513Z,86.04
2018-12-25T00:59:25.500Z,86.04
2018-12-25T01:00:25.489Z,86.15
2018-12-25T01:01:25.583Z,85.94
2018-12-25T01:02:25.472Z,86.04
2018-12-25T01:03:25.459Z,86.04
2018-12-25T01:04:25.465Z,86.25
2018-12-25T01:05:25.437Z,85.83
2018-12-25T01:06:25.448Z,86.15
2018-12-25T01:07:25.863Z,86.15
2018-12-25T01:08:25.406Z,86.15
2018-12-25T01:09:25.402Z,86.55
2018-12-25T01:10:25.385Z,86.55
2018-12-25T01:11:25.429Z,85.94
2018-12-25T01:12:25.375Z,86.35
2018-12-25T01:13:25.392Z,87.43
2018-12-25T01:14:25.698Z,87.28
2018-12-25T01:15:25.333Z,86.66
2018-12-25T01:16:25.325Z,86.87
2018-12-25T01:17:25.314Z,86.97
2018-12-25T01:18:25.301Z,86.66
2018-12-25T01:19:26.358Z,86.66
2018-12-25T01:20:25.279Z,86.97
2018-12-25T01:21:25.270Z,86.76
2018-12-25T01:22:25.973Z,86.55
2018-12-25T01:23:25.251Z,86.25
2018-12-25T01:24:25.238Z,86.55
2018-12-25T01:25:25.391Z,86.66
2018-12-25T01:26:25.674Z,85.83
2018-12-25T01:27:25.208Z,85.94
2018-12-25T01:28:25.198Z,86.25
2018-12-25T01:29:25.205Z,86.15
2018-12-25T01:30:25.176Z,86.15
2018-12-25T01:31:25.430Z,85.73
2018-12-25T01:32:25.156Z,86.15
2018-12-25T01:33:25.484Z,85.73
2018-12-25T01:34:25.136Z,86.04
2018-12-25T01:35:25.126Z,85.73
2018-12-25T01:36:25.116Z,86.04
2018-12-25T01:37:25.317Z,86.25
2018-12-25T01:38:25.093Z,85.48
2018-12-25T01:39:25.085Z,85.79
2018-12-25T01:40:25.076Z,85.79
2018-12-25T01:41:25.979Z,85.83
2018-12-25T01:42:25.054Z,85.69
2018-12-25T01:43:25.419Z,85.79
2018-12-25T01:44:25.030Z,85.69
2018-12-25T01:45:25.459Z,86.00
2018-12-25T01:46:25.009Z,85.79
2018-12-25T01:47:26.026Z,85.89
2018-12-25T01:48:24.991Z,86.00
2018-12-25T01:49:31.785Z,85.79
2018-12-25T01:50:25.965Z,85.79
2018-12-25T01:51:24.956Z,86.52
2018-12-25T01:52:25.277Z,85.79
2018-12-25T01:53:24.936Z,85.58
2018-12-25T01:54:24.923Z,85.58
2018-12-25T01:55:24.960Z,85.69
2018-12-25T01:56:24.903Z,85.83
2018-12-25T01:57:24.892Z,85.83
2018-12-25T01:58:24.888Z,85.69
2018-12-25T01:59:25.300Z,85.69
2018-12-25T02:00:24.861Z,85.79
2018-12-25T02:01:24.996Z,86.10
2018-12-25T02:02:24.870Z,85.69
2018-12-25T02:03:25.020Z,85.79
2018-12-25T02:04:24.829Z,85.17
2018-12-25T02:05:24.888Z,84.86
2018-12-25T02:06:25.127Z,85.06
2018-12-25T02:07:24.840Z,85.69
2018-12-25T02:08:24.777Z,85.89
2018-12-25T02:09:24.766Z,84.86
2018-12-25T02:10:24.758Z,85.17
2018-12-25T02:11:24.746Z,85.17
2018-12-25T02:12:24.736Z,85.27
2018-12-25T02:13:25.158Z,85.17
2018-12-25T02:14:24.726Z,85.38
2018-12-25T02:15:24.704Z,84.86
2018-12-25T02:16:24.695Z,85.27
2018-12-25T02:17:24.686Z,85.69
2018-12-25T02:18:24.676Z,85.38
2018-12-25T02:19:24.742Z,85.27
2018-12-25T02:20:25.140Z,85.17
2018-12-25T02:21:24.641Z,85.38
2018-12-25T02:22:24.631Z,85.06
2018-12-25T02:23:24.620Z,85.27
2018-12-25T02:24:24.610Z,85.17
2018-12-25T02:25:24.638Z,85.38
2018-12-25T02:26:24.593Z,85.79
2018-12-25T02:27:24.963Z,85.17
2018-12-25T02:28:24.569Z,85.17
2018-12-25T02:29:24.561Z,85.27
2018-12-25T02:30:24.685Z,85.38
2018-12-25T02:31:24.577Z,84.55
2018-12-25T02:32:24.528Z,84.65
2018-12-25T02:33:24.518Z,84.96
2018-12-25T02:34:25.007Z,84.65
2018-12-25T02:35:24.501Z,84.55
2018-12-25T02:36:24.485Z,85.17
2018-12-25T02:37:24.543Z,84.75
2018-12-25T02:38:24.464Z,84.86
2018-12-25T02:39:24.454Z,84.75
2018-12-25T02:40:24.445Z,84.13
2018-12-25T02:41:24.803Z,84.34
2018-12-25T02:42:24.428Z,84.03
2018-12-25T02:43:24.452Z,84.03
2018-12-25T02:44:24.405Z,83.83
2018-12-25T02:45:24.399Z,84.23
2018-12-25T02:46:24.386Z,84.86
2018-12-25T02:47:24.369Z,84.86
2018-12-25T02:48:24.822Z,85.06
2018-12-25T02:49:24.387Z,84.55
2018-12-25T02:50:24.338Z,84.86
2018-12-25T02:51:24.331Z,84.80
2018-12-25T02:52:24.318Z,85.38
2018-12-25T02:53:24.308Z,84.03
2018-12-25T02:54:26.631Z,84.13
2018-12-25T02:55:24.677Z,84.13
2018-12-25T02:56:24.275Z,83.83
2018-12-25T02:57:24.271Z,84.86
2018-12-25T02:58:24.263Z,84.13
2018-12-25T02:59:24.244Z,84.34
2018-12-25T03:01:47.022Z,84.13
2018-12-25T03:02:46.008Z,84.23
2018-12-25T03:03:45.981Z,84.34
2018-12-25T03:04:45.972Z,83.93
2018-12-25T03:05:45.961Z,83.93
2018-12-25T03:06:45.949Z,84.23
2018-12-25T03:07:46.666Z,83.93
2018-12-25T03:08:45.929Z,84.23
2018-12-25T03:09:45.917Z,84.34
2018-12-25T03:10:46.644Z,84.09
2018-12-25T03:11:45.898Z,83.93
2018-12-25T03:12:45.886Z,84.23
2018-12-25T03:13:45.994Z,84.23
2018-12-25T03:14:45.875Z,84.23
2018-12-25T03:15:45.855Z,84.23
2018-12-25T03:16:45.845Z,84.34
2018-12-25T03:17:45.839Z,84.34
2018-12-25T03:18:45.827Z,84.03
2018-12-25T03:19:46.445Z,84.03
2018-12-25T03:20:45.806Z,84.23
2018-12-25T03:21:45.796Z,84.13
2018-12-25T03:22:45.809Z,84.23
2018-12-25T03:23:45.776Z,84.13
2018-12-25T03:24:45.775Z,83.93
2018-12-25T03:25:45.871Z,84.13
2018-12-25T03:26:47.608Z,83.83
2018-12-25T03:27:45.732Z,84.34
2018-12-25T03:28:45.724Z,82.95
2018-12-25T03:29:45.711Z,83.26
2018-12-25T03:30:45.703Z,83.16
2018-12-25T03:31:45.819Z,83.16
2018-12-25T03:32:45.682Z,83.37
2018-12-25T03:33:46.108Z,83.58
2018-12-25T03:34:45.699Z,83.16
2018-12-25T03:35:45.650Z,83.20
2018-12-25T03:36:45.659Z,84.03
2018-12-25T03:37:45.774Z,83.93
2018-12-25T03:38:45.630Z,83.51
2018-12-25T03:39:45.621Z,83.62
2018-12-25T03:40:45.963Z,83.72
2018-12-25T03:41:45.587Z,84.13
2018-12-25T03:42:45.595Z,83.93
2018-12-25T03:43:45.767Z,83.72
2018-12-25T03:44:45.557Z,83.93
2018-12-25T03:45:45.548Z,83.83
2018-12-25T03:46:45.543Z,83.62
2018-12-25T03:47:46.191Z,83.68
2018-12-25T03:48:45.516Z,83.89
2018-12-25T03:49:45.779Z,83.99
2018-12-25T03:50:45.497Z,84.23
2018-12-25T03:51:45.490Z,83.89
2018-12-25T03:52:45.474Z,83.68
2018-12-25T03:53:45.589Z,84.09
2018-12-25T03:54:45.876Z,83.78
2018-12-25T03:55:45.585Z,84.20
2018-12-25T03:56:45.490Z,83.68
2018-12-25T03:57:45.423Z,83.89
2018-12-25T03:58:45.460Z,84.30
2018-12-25T03:59:45.434Z,84.30
2018-12-25T04:00:45.416Z,84.23
2018-12-25T04:01:45.505Z,84.03
2018-12-25T04:02:45.420Z,84.03
2018-12-25T04:03:45.463Z,84.13
2018-12-25T04:04:45.442Z,84.86
2018-12-25T04:05:45.414Z,85.38
2018-12-25T04:06:45.347Z,85.27
2018-12-25T04:07:45.861Z,85.17
2018-12-25T04:08:45.318Z,85.48
2018-12-25T04:09:45.375Z,85.27
2018-12-25T04:10:45.307Z,84.86
2018-12-25T04:11:45.277Z,85.06
2018-12-25T04:12:45.307Z,85.58
2018-12-25T04:13:45.471Z,85.03
2018-12-25T04:14:47.858Z,84.82
2018-12-25T04:15:45.355Z,85.24
2018-12-25T04:16:45.227Z,84.92
2018-12-25T04:17:45.219Z,85.13
2018-12-25T04:18:45.241Z,84.41
2018-12-25T04:19:45.333Z,84.30
2018-12-25T04:20:45.214Z,84.61
2018-12-25T04:21:45.477Z,83.89
2018-12-25T04:22:45.214Z,84.75
2018-12-25T04:23:45.183Z,84.34
2018-12-25T04:24:45.144Z,84.61
2018-12-25T04:25:45.391Z,84.41
2018-12-25T04:26:45.181Z,84.30
2018-12-25T04:27:45.146Z,85.13
2018-12-25T04:28:45.109Z,84.61
2018-12-25T04:29:45.096Z,84.82
2018-12-25T04:30:45.083Z,84.82
2018-12-25T04:31:45.437Z,84.30
2018-12-25T04:32:45.062Z,83.99
2018-12-25T04:33:45.052Z,83.99
2018-12-25T04:34:45.338Z,84.09
2018-12-25T04:35:45.033Z,83.78
2018-12-25T04:36:45.019Z,84.30
2018-12-25T04:37:45.136Z,84.20
2018-12-25T04:38:44.999Z,85.13
2018-12-25T04:39:44.990Z,84.30
2018-12-25T04:40:44.978Z,84.72
2018-12-25T04:41:45.258Z,84.09
2018-12-25T04:42:44.959Z,85.03
2018-12-25T04:43:45.065Z,85.48
2018-12-25T04:44:44.939Z,85.24
2018-12-25T04:45:44.927Z,84.92
2018-12-25T04:46:44.926Z,84.96
2018-12-25T04:47:44.907Z,85.17
2018-12-25T04:48:45.180Z,85.65
2018-12-25T04:49:45.100Z,85.69
2018-12-25T04:50:44.876Z,85.03
2018-12-25T04:51:44.865Z,84.92
2018-12-25T04:52:44.855Z,85.34
2018-12-25T04:53:44.847Z,85.34
2018-12-25T04:54:44.938Z,84.61
2018-12-25T04:55:45.227Z,85.24
2018-12-25T04:56:44.816Z,84.72
2018-12-25T04:57:44.809Z,85.03
2018-12-25T04:58:44.792Z,85.34
2018-12-25T04:59:44.784Z,85.24
2018-12-25T05:00:44.772Z,85.13
2018-12-25T05:01:45.310Z,85.34
2018-12-25T05:02:44.754Z,84.82
2018-12-25T05:03:44.742Z,84.41
2018-12-25T05:04:44.732Z,85.13
2018-12-25T05:05:44.724Z,84.82
2018-12-25T05:06:44.719Z,84.30
2018-12-25T05:07:45.050Z,83.99
2018-12-25T05:08:44.690Z,83.99
2018-12-25T05:09:44.689Z,83.78
2018-12-25T05:10:44.671Z,83.89
2018-12-25T05:11:44.659Z,84.30
2018-12-25T05:12:44.650Z,83.68
2018-12-25T05:13:45.184Z,83.58
2018-12-25T05:14:44.629Z,83.47
2018-12-25T05:15:44.626Z,82.95
2018-12-25T05:16:44.608Z,83.16
2018-12-25T05:17:44.597Z,83.78
2018-12-25T05:18:44.587Z,83.37
2018-12-25T05:19:44.930Z,83.37
2018-12-25T05:20:44.568Z,82.75
2018-12-25T05:21:44.557Z,83.47
2018-12-25T05:22:44.545Z,83.47
2018-12-25T05:23:44.536Z,84.09
2018-12-25T05:24:44.667Z,83.06
2018-12-25T05:25:44.609Z,83.58
2018-12-25T05:26:44.868Z,83.26
2018-12-25T05:27:44.494Z,83.78
2018-12-25T05:28:44.484Z,84.09
2018-12-25T05:29:44.474Z,83.62
2018-12-25T05:30:44.464Z,83.89
2018-12-25T05:31:44.535Z,83.58
2018-12-25T05:32:44.448Z,83.89
2018-12-25T05:33:44.883Z,83.89
2018-12-25T05:34:44.423Z,83.06
2018-12-25T05:35:44.415Z,82.86
2018-12-25T05:36:44.404Z,83.37
2018-12-25T05:37:44.465Z,82.71
2018-12-25T05:38:44.380Z,83.06
2018-12-25T05:39:44.371Z,83.06
2018-12-25T05:40:44.662Z,83.78
2018-12-25T05:41:44.353Z,83.37
2018-12-25T05:42:44.340Z,82.95
2018-12-25T05:43:44.445Z,82.86
2018-12-25T05:44:44.325Z,82.65
2018-12-25T05:45:44.310Z,83.26
2018-12-25T05:46:44.300Z,83.26
2018-12-25T05:47:46.769Z,83.06
2018-12-25T05:48:44.295Z,83.78
2018-12-25T05:49:44.343Z,83.78
2018-12-25T05:50:46.796Z,83.78
2018-12-25T05:51:44.247Z,83.78
2018-12-25T05:52:44.241Z,83.89
2018-12-25T05:53:44.228Z,83.26
2018-12-25T05:54:44.495Z,83.26
2018-12-25T05:55:44.285Z,83.62
2018-12-25T05:56:44.199Z,83.83
2018-12-25T05:57:44.188Z,84.23
2018-12-25T05:58:44.278Z,83.83
2018-12-25T05:59:44.167Z,84.03
2018-12-25T06:00:44.169Z,83.83
2018-12-25T06:01:44.231Z,83.93
2018-12-25T06:02:44.134Z,84.03
2018-12-25T06:03:44.131Z,83.93
2018-12-25T06:04:44.114Z,83.93
2018-12-25T06:05:44.105Z,83.62
2018-12-25T06:06:44.095Z,84.23
2018-12-25T06:07:44.566Z,84.34
2018-12-25T06:08:44.072Z,83.83
2018-12-25T06:09:44.063Z,83.93
2018-12-25T06:10:44.052Z,84.44
2018-12-25T06:11:44.612Z,84.44
2018-12-25T06:12:44.613Z,84.03
2018-12-25T06:13:44.941Z,83.93
2018-12-25T06:14:44.342Z,83.93
2018-12-25T06:15:44.000Z,84.34
2018-12-25T06:16:43.990Z,84.75
2018-12-25T06:17:43.979Z,84.38
2018-12-25T06:18:43.969Z,84.86
2018-12-25T06:19:44.244Z,84.90
2018-12-25T06:20:43.949Z,84.86
2018-12-25T06:21:44.352Z,84.96
2018-12-25T06:22:43.929Z,85.27
2018-12-25T06:23:43.918Z,84.86
2018-12-25T06:24:43.907Z,84.23
2018-12-25T06:25:44.099Z,84.34
2018-12-25T06:26:43.889Z,84.34
2018-12-25T06:27:43.878Z,84.23
2018-12-25T06:28:49.085Z,85.06
2018-12-25T06:29:43.855Z,85.06
2018-12-25T06:30:43.845Z,85.31
2018-12-25T06:31:43.953Z,84.75
2018-12-25T06:32:43.826Z,84.34
2018-12-25T06:33:43.816Z,83.83
2018-12-25T06:34:43.803Z,83.86
2018-12-25T06:35:44.083Z,84.34
2018-12-25T06:36:43.783Z,84.28
2018-12-25T06:37:44.068Z,84.34
2018-12-25T06:38:43.762Z,84.34
2018-12-25T06:39:43.753Z,84.34
2018-12-25T06:40:43.741Z,85.21
2018-12-25T06:41:43.733Z,85.17
2018-12-25T06:42:44.209Z,85.52
2018-12-25T06:43:43.830Z,85.27
2018-12-25T06:44:43.700Z,84.59
2018-12-25T06:45:43.690Z,85.21
2018-12-25T06:46:43.685Z,85.89
2018-12-25T06:47:43.668Z,85.17
2018-12-25T06:48:43.659Z,85.38
2018-12-25T06:49:43.765Z,85.27
2018-12-25T06:50:43.642Z,84.80
2018-12-25T06:51:43.629Z,85.42
2018-12-25T06:52:43.617Z,85.21
2018-12-25T06:53:43.607Z,84.75
2018-12-25T06:54:43.597Z,85.06
2018-12-25T06:55:44.034Z,85.27
2018-12-25T06:56:43.576Z,85.42
2018-12-25T06:57:43.566Z,85.21
2018-12-25T06:58:43.556Z,85.52
2018-12-25T06:59:43.589Z,85.83
2018-12-25T07:00:43.535Z,86.45
2018-12-25T07:01:44.125Z,85.94
2018-12-25T07:02:43.519Z,86.29
2018-12-25T07:03:43.502Z,86.25
2018-12-25T07:04:43.492Z,85.77
2018-12-25T07:05:43.483Z,86.04
2018-12-25T07:06:43.476Z,86.55
2018-12-25T07:07:43.741Z,85.73
2018-12-25T07:08:43.456Z,86.15
2018-12-25T07:09:43.442Z,86.08
2018-12-25T07:10:43.432Z,85.94
2018-12-25T07:11:43.422Z,86.55
2018-12-25T07:12:43.411Z,86.15
2018-12-25T07:13:43.909Z,86.25
2018-12-25T07:14:43.389Z,86.55
2018-12-25T07:15:43.379Z,85.83
2018-12-25T07:16:43.369Z,86.15
2018-12-25T07:17:43.444Z,86.25
2018-12-25T07:18:43.379Z,86.04
2018-12-25T07:19:43.537Z,86.45
2018-12-25T07:20:43.364Z,86.15
2018-12-25T07:21:43.316Z,86.15
2018-12-25T07:22:43.309Z,86.15
2018-12-25T07:23:43.296Z,86.04
2018-12-25T07:24:43.286Z,86.55
2018-12-25T07:25:43.658Z,87.38
2018-12-25T07:26:43.266Z,86.97
2018-12-25T07:27:43.256Z,87.28
2018-12-25T07:28:43.245Z,86.87
2018-12-25T07:29:43.235Z,86.87
2018-12-25T07:30:43.223Z,86.97
2018-12-25T07:31:43.646Z,87.07
2018-12-25T07:32:43.202Z,87.07
2018-12-25T07:33:43.197Z,87.07
2018-12-25T07:34:43.183Z,87.38
2018-12-25T07:35:43.171Z,87.07
2018-12-25T07:36:43.161Z,86.76
2018-12-25T07:37:43.192Z,87.07
2018-12-25T07:38:43.427Z,87.07
2018-12-25T07:39:43.130Z,87.18
2018-12-25T07:40:43.121Z,87.59
2018-12-25T07:41:44.094Z,87.59
2018-12-25T07:42:43.099Z,87.07
2018-12-25T07:43:43.128Z,86.76
2018-12-25T07:44:43.081Z,87.07
2018-12-25T07:45:43.446Z,86.87
2018-12-25T07:46:43.061Z,86.87
2018-12-25T07:47:43.045Z,87.07
2018-12-25T07:48:43.035Z,86.87
2018-12-25T07:49:43.327Z,87.59
2018-12-25T07:50:43.016Z,86.97
2018-12-25T07:51:43.003Z,87.18
2018-12-25T07:52:43.468Z,87.14
2018-12-25T07:53:42.983Z,87.18
2018-12-25T07:54:42.976Z,86.87
2018-12-25T07:55:42.999Z,87.04
2018-12-25T07:56:42.954Z,86.83
2018-12-25T07:57:42.941Z,87.14
2018-12-25T07:58:42.931Z,86.55
2018-12-25T07:59:43.278Z,86.83
2018-12-25T08:00:42.912Z,87.04
2018-12-25T08:01:42.939Z,87.04
2018-12-25T08:02:42.890Z,87.14
2018-12-25T08:03:42.880Z,87.35
2018-12-25T08:04:42.869Z,87.24
2018-12-25T08:05:42.861Z,87.35
2018-12-25T08:06:43.165Z,86.41
2018-12-25T08:07:42.906Z,86.10
2018-12-25T08:08:42.827Z,86.47
2018-12-25T08:09:42.815Z,86.47
2018-12-25T08:10:42.807Z,86.31
2018-12-25T08:11:42.795Z,85.75
2018-12-25T08:12:42.784Z,85.55
2018-12-25T08:13:43.149Z,85.75
2018-12-25T08:14:42.765Z,85.86
2018-12-25T08:15:42.754Z,85.75
2018-12-25T08:16:42.741Z,86.07
2018-12-25T08:17:42.733Z,85.75
2018-12-25T08:18:42.722Z,85.96
2018-12-25T08:19:42.762Z,86.07
2018-12-25T08:20:43.007Z,85.92
2018-12-25T08:21:42.688Z,86.17
2018-12-25T08:22:42.679Z,85.82
2018-12-25T08:23:42.671Z,85.92
2018-12-25T08:24:42.659Z,85.40
2018-12-25T08:25:42.860Z,86.02
2018-12-25T08:26:42.636Z,85.09
2018-12-25T08:27:42.940Z,84.88
2018-12-25T08:28:42.633Z,84.12
2018-12-25T08:29:42.616Z,84.16
2018-12-25T08:30:42.597Z,84.27
2018-12-25T08:31:42.666Z,83.89
2018-12-25T08:32:42.614Z,84.06
2018-12-25T08:33:42.711Z,84.72
2018-12-25T08:34:42.983Z,84.82
2018-12-25T08:35:42.546Z,84.82
2018-12-25T08:36:42.534Z,85.24
2018-12-25T08:37:42.566Z,85.24
2018-12-25T08:38:42.513Z,85.13
2018-12-25T08:39:42.505Z,85.13
2018-12-25T08:40:42.493Z,85.03
2018-12-25T08:41:42.769Z,84.82
2018-12-25T08:42:42.474Z,84.92
2018-12-25T08:43:42.547Z,85.09
2018-12-25T08:44:42.451Z,85.24
2018-12-25T08:45:42.441Z,85.09
2018-12-25T08:46:42.439Z,85.19
2018-12-25T08:47:42.423Z,85.19
2018-12-25T08:48:42.787Z,85.19
2018-12-25T08:49:42.439Z,84.99
2018-12-25T08:50:42.389Z,85.19
2018-12-25T08:51:42.378Z,85.09
2018-12-25T08:52:42.367Z,84.16
2018-12-25T08:53:42.357Z,84.06
2018-12-25T08:54:42.346Z,84.06
2018-12-25T08:55:42.845Z,84.06
2018-12-25T08:56:42.326Z,83.95
2018-12-25T08:57:42.316Z,85.09
2018-12-25T08:58:42.308Z,84.58
2018-12-25T08:59:42.295Z,84.68
2018-12-25T09:00:42.284Z,85.30
2018-12-25T09:01:42.629Z,84.99
2018-12-25T09:02:42.266Z,85.30
2018-12-25T09:03:42.253Z,85.19
2018-12-25T09:04:42.245Z,84.47
2018-12-25T09:05:42.232Z,85.09
2018-12-25T09:06:42.223Z,85.40
2018-12-25T09:07:42.252Z,83.85
2018-12-25T09:08:42.203Z,84.37
2018-12-25T09:09:42.191Z,84.58
2018-12-25T09:10:42.182Z,84.37
2018-12-25T09:11:42.179Z,84.06
2018-12-25T09:12:42.165Z,84.06
2018-12-25T09:13:42.607Z,84.06
2018-12-25T09:14:42.142Z,84.47
2018-12-25T09:15:42.132Z,83.85
2018-12-25T09:16:43.084Z,84.16
2018-12-25T09:17:42.114Z,83.85
2018-12-25T09:18:42.101Z,84.22
2018-12-25T09:19:42.156Z,83.33
2018-12-25T09:20:42.078Z,83.81
2018-12-25T09:21:46.072Z,83.75
2018-12-25T09:22:42.646Z,82.98
2018-12-25T09:23:42.053Z,82.98
2018-12-25T09:24:42.046Z,82.88
2018-12-25T09:25:42.382Z,83.09
2018-12-25T09:26:42.018Z,82.98
2018-12-25T09:27:42.006Z,83.09
2018-12-25T09:28:41.997Z,83.29
2018-12-25T09:29:41.987Z,82.67
2018-12-25T09:30:41.975Z,83.19
2018-12-25T09:31:42.375Z,82.98
2018-12-25T09:32:41.954Z,83.40
2018-12-25T09:33:41.944Z,83.19
2018-12-25T09:34:41.999Z,83.29
2018-12-25T09:35:41.925Z,83.40
2018-12-25T09:36:41.915Z,83.09
2018-12-25T09:37:41.971Z,83.50
2018-12-25T09:38:42.380Z,83.71
2018-12-25T09:39:41.896Z,82.88
2018-12-25T09:40:41.905Z,82.57
2018-12-25T09:41:41.864Z,83.19
2018-12-25T09:42:41.855Z,82.78
2018-12-25T09:43:41.885Z,82.98
2018-12-25T09:44:41.834Z,82.67
2018-12-25T09:45:43.201Z,82.88
2018-12-25T09:46:41.857Z,82.36
2018-12-25T09:47:41.802Z,82.78
2018-12-25T09:48:41.789Z,83.19
2018-12-25T09:49:41.828Z,82.26
2018-12-25T09:50:41.789Z,82.78
2018-12-25T09:51:41.774Z,82.67
2018-12-25T09:52:43.225Z,82.78
2018-12-25T09:53:41.741Z,82.32
2018-12-25T09:54:41.729Z,82.43
2018-12-25T09:55:42.025Z,82.26
2018-12-25T09:56:41.707Z,82.26
2018-12-25T09:57:41.704Z,82.36
2018-12-25T09:58:41.686Z,82.12
2018-12-25T09:59:42.014Z,83.19
2018-12-25T10:00:41.799Z,82.46
2018-12-25T10:01:41.856Z,82.36
2018-12-25T10:02:41.646Z,82.43
2018-12-25T10:03:41.635Z,82.64
2018-12-25T10:04:41.630Z,82.67
2018-12-25T10:05:41.614Z,82.64
2018-12-25T10:06:42.037Z,82.12
2018-12-25T10:07:41.638Z,82.36
2018-12-25T10:08:41.583Z,82.01
2018-12-25T10:09:41.573Z,82.53
2018-12-25T10:10:41.567Z,82.84
2018-12-25T10:11:44.600Z,82.64
2018-12-25T10:12:41.543Z,82.64
2018-12-25T10:13:41.891Z,82.43
2018-12-25T10:14:41.523Z,82.84
2018-12-25T10:15:41.511Z,82.43
2018-12-25T10:16:41.500Z,82.46
2018-12-25T10:17:41.594Z,82.43
2018-12-25T10:18:41.485Z,82.53
2018-12-25T10:19:41.639Z,82.95
2018-12-25T10:20:41.742Z,82.64
2018-12-25T10:21:41.534Z,82.64
2018-12-25T10:22:41.486Z,82.22
2018-12-25T10:23:41.592Z,82.53
2018-12-25T10:24:41.523Z,82.43
2018-12-25T10:25:41.820Z,82.22
2018-12-25T10:26:41.528Z,82.64
2018-12-25T10:27:42.110Z,82.12
2018-12-25T10:28:41.612Z,81.49
2018-12-25T10:29:41.369Z,82.12
2018-12-25T10:30:41.365Z,81.05
2018-12-25T10:31:42.101Z,81.05
2018-12-25T10:32:41.336Z,81.70
2018-12-25T10:33:41.573Z,80.84
2018-12-25T10:34:42.119Z,80.98
2018-12-25T10:35:41.309Z,81.46
2018-12-25T10:36:41.398Z,81.67
2018-12-25T10:37:41.331Z,81.56
2018-12-25T10:38:41.274Z,81.35
2018-12-25T10:39:41.265Z,81.46
2018-12-25T10:40:41.265Z,81.09
2018-12-25T10:41:41.717Z,81.25
2018-12-25T10:42:41.232Z,80.84
2018-12-25T10:43:41.265Z,80.63
2018-12-25T10:44:41.211Z,80.94
2018-12-25T10:45:41.215Z,80.94
2018-12-25T10:46:41.390Z,80.74
2018-12-25T10:47:41.184Z,80.94
2018-12-25T10:48:41.528Z,80.43
2018-12-25T10:49:41.229Z,80.32
2018-12-25T10:50:41.900Z,80.11
2018-12-25T10:51:41.140Z,79.91
2018-12-25T10:52:41.131Z,79.49
2018-12-25T10:53:41.136Z,79.60
2018-12-25T10:54:41.108Z,79.05
2018-12-25T10:55:41.582Z,79.36
2018-12-25T10:56:41.090Z,79.49
2018-12-25T10:57:41.077Z,79.29
2018-12-25T10:58:42.060Z,79.46
2018-12-25T10:59:41.565Z,78.94
2018-12-25T11:00:41.560Z,79.25
2018-12-25T11:01:41.213Z,78.84
2018-12-25T11:02:42.022Z,78.42
2018-12-25T11:03:41.022Z,78.42
2018-12-25T11:04:41.013Z,78.67
2018-12-25T11:05:40.997Z,78.53
2018-12-25T11:06:40.984Z,78.11
2018-12-25T11:07:41.303Z,78.01
2018-12-25T11:08:41.561Z,78.08
2018-12-25T11:09:41.241Z,77.91
2018-12-25T11:10:40.945Z,77.98
2018-12-25T11:11:40.932Z,77.91
2018-12-25T11:12:41.558Z,78.11
2018-12-25T11:13:41.080Z,77.91
2018-12-25T11:14:40.902Z,77.91
2018-12-25T11:15:40.898Z,77.91
2018-12-25T11:16:41.602Z,78.08
2018-12-25T11:17:40.904Z,78.39
2018-12-25T11:18:48.922Z,78.08
2018-12-25T11:19:42.560Z,78.32
2018-12-25T11:20:40.838Z,77.36
2018-12-25T11:21:40.874Z,78.11
2018-12-25T11:22:40.822Z,78.08
2018-12-25T11:23:41.196Z,78.28
2018-12-25T11:24:40.798Z,77.87
2018-12-25T11:25:41.106Z,77.25
2018-12-25T11:26:40.776Z,76.73
2018-12-25T11:27:40.773Z,76.32
2018-12-25T11:28:40.757Z,76.73
2018-12-25T11:29:41.519Z,77.15
2018-12-25T11:30:41.213Z,77.77
2018-12-25T11:31:40.765Z,77.77
2018-12-25T11:32:40.733Z,77.25
2018-12-25T11:33:40.703Z,77.15
2018-12-25T11:34:40.693Z,77.98
2018-12-25T11:35:40.693Z,77.15
2018-12-25T11:36:40.671Z,77.15
2018-12-25T11:37:41.067Z,77.25
2018-12-25T11:38:40.921Z,77.36
2018-12-25T11:39:40.640Z,77.56
2018-12-25T11:40:40.637Z,77.98
2018-12-25T11:41:40.622Z,77.98
2018-12-25T11:42:40.609Z,77.98
2018-12-25T11:43:40.752Z,77.87
2018-12-25T11:44:41.052Z,77.56
2018-12-25T11:45:40.577Z,77.56
2018-12-25T11:46:40.570Z,77.87
2018-12-25T11:47:40.570Z,78.22
2018-12-25T11:48:40.552Z,78.32
2018-12-25T11:49:40.576Z,77.98
2018-12-25T11:50:40.526Z,77.87
2018-12-25T11:51:41.514Z,77.87
2018-12-25T11:52:40.507Z,78.28
2018-12-25T11:53:40.578Z,78.08
2018-12-25T11:54:40.486Z,78.18
2018-12-25T11:55:40.511Z,78.18
2018-12-25T11:56:40.467Z,78.28
2018-12-25T11:57:40.495Z,78.18
2018-12-25T11:58:41.516Z,78.08
2018-12-25T11:59:40.458Z,78.08
2018-12-25T12:00:40.421Z,79.11
2018-12-25T12:01:40.710Z,78.18
2018-12-25T12:02:40.516Z,78.49
2018-12-25T12:03:40.564Z,78.28
2018-12-25T12:04:40.381Z,78.49
2018-12-25T12:05:40.373Z,78.49
2018-12-25T12:06:40.359Z,78.70
2018-12-25T12:07:40.392Z,78.49
2018-12-25T12:08:40.339Z,78.18
2018-12-25T12:09:40.328Z,78.80
2018-12-25T12:10:40.403Z,78.59
2018-12-25T12:11:40.697Z,78.28
2018-12-25T12:12:40.296Z,79.01
2018-12-25T12:13:40.330Z,78.80
2018-12-25T12:14:40.394Z,78.28
2018-12-25T12:15:40.336Z,78.80
2018-12-25T12:16:40.253Z,78.70
2018-12-25T12:17:40.252Z,78.70
2018-12-25T12:18:40.241Z,78.80
2018-12-25T12:19:40.300Z,79.01
2018-12-25T12:20:40.238Z,78.49
2018-12-25T12:21:40.207Z,78.91
2018-12-25T12:22:40.192Z,78.45
2018-12-25T12:23:40.667Z,77.87
2018-12-25T12:24:40.170Z,78.08
2018-12-25T12:25:40.213Z,78.59
2018-12-25T12:26:40.280Z,79.11
2018-12-25T12:27:40.228Z,78.70
2018-12-25T12:28:40.129Z,79.08
2018-12-25T12:29:40.118Z,79.11
2018-12-25T12:30:40.109Z,78.18
2018-12-25T12:31:40.137Z,78.59
2018-12-25T12:32:40.088Z,78.49
2018-12-25T12:33:40.116Z,78.49
2018-12-25T12:34:41.050Z,78.28
2018-12-25T12:35:40.520Z,78.28
2018-12-25T12:36:40.045Z,78.70
2018-12-25T12:37:41.094Z,78.45
2018-12-25T12:38:40.025Z,77.94
2018-12-25T12:39:40.014Z,78.25
2018-12-25T12:40:40.596Z,77.84
2018-12-25T12:41:40.001Z,77.73
2018-12-25T12:42:40.320Z,78.56
2018-12-25T12:43:40.101Z,78.77
2018-12-25T12:44:40.030Z,77.84
2018-12-25T12:45:39.951Z,78.56
2018-12-25T12:46:40.019Z,78.77
2018-12-25T12:47:40.081Z,78.70
2018-12-25T12:48:39.923Z,78.56
2018-12-25T12:49:41.543Z,78.70
2018-12-25T12:50:40.546Z,78.70
2018-12-25T12:51:39.889Z,79.22
2018-12-25T12:52:45.505Z,79.08
2018-12-25T12:53:40.871Z,79.01